sensor_id;sensor_type;location;lat;lon;timestamp;pressure;altitude;pressure_sealevel;temperature;humidity
47670;BME280;33408;52.062;11.722;2024-02-28T00:00:05;101495.09;;;3.99;100.00
47670;BME280;33408;52.062;11.722;2024-02-28T00:02:33;101501.31;;;4.11;100.00
47670;BME280;33408;52.062;11.722;2024-02-28T00:04:59;101498.75;;;4.11;100.00
47670;BME280;33408;52.062;11.722;2024-02-28T00:07:26;101496.03;;;4.03;100.00
47670;BME280;33408;52.062;11.722;2024-02-28T00:09:52;101500.22;;;3.99;100.00
47670;BME280;33408;52.062;11.722;2024-02-28T00:12:22;101502.06;;;4.07;100.00
47670;BME280;33408;52.062;11.722;2024-02-28T00:14:50;101493.63;;;4.11;100.00
47670;BME280;33408;52.062;11.722;2024-02-28T00:17:18;101492.66;;;4.07;100.00
47670;BME280;33408;52.062;11.722;2024-02-28T00:19:44;101491.81;;;4.07;100.00
47670;BME280;33408;52.062;11.722;2024-02-28T00:22:11;101486.56;;;4.00;100.00
47670;BME280;33408;52.062;11.722;2024-02-28T00:24:38;101484.69;;;3.92;100.00
47670;BME280;33408;52.062;11.722;2024-02-28T00:27:04;101488.38;;;4.05;100.00
47670;BME280;33408;52.062;11.722;2024-02-28T00:29:31;101477.97;;;3.98;100.00
47670;BME280;33408;52.062;11.722;2024-02-28T00:31:57;101477.09;;;3.96;100.00
47670;BME280;33408;52.062;11.722;2024-02-28T00:34:25;101480.06;;;3.75;100.00
47670;BME280;33408;52.062;11.722;2024-02-28T00:36:52;101479.38;;;3.84;100.00
47670;BME280;33408;52.062;11.722;2024-02-28T00:39:18;101480.47;;;3.95;100.00
47670;BME280;33408;52.062;11.722;2024-02-28T00:41:45;101482.19;;;3.95;100.00
47670;BME280;33408;52.062;11.722;2024-02-28T00:44:11;101485.22;;;3.77;100.00
47670;BME280;33408;52.062;11.722;2024-02-28T00:46:39;101485.47;;;3.89;100.00
47670;BME280;33408;52.062;11.722;2024-02-28T00:49:05;101477.25;;;4.06;100.00
47670;BME280;33408;52.062;11.722;2024-02-28T00:51:33;101478.22;;;4.11;100.00
47670;BME280;33408;52.062;11.722;2024-02-28T00:54:01;101487.69;;;4.15;100.00
47670;BME280;33408;52.062;11.722;2024-02-28T00:56:28;101490.47;;;4.24;100.00
47670;BME280;33408;52.062;11.722;2024-02-28T00:58:55;101484.91;;;4.04;100.00
47670;BME280;33408;52.062;11.722;2024-02-28T01:01:21;101495.41;;;4.15;100.00
47670;BME280;33408;52.062;11.722;2024-02-28T01:03:48;101492.50;;;3.98;100.00
47670;BME280;33408;52.062;11.722;2024-02-28T01:06:15;101504.22;;;3.85;100.00
47670;BME280;33408;52.062;11.722;2024-02-28T01:08:43;101500.88;;;3.91;100.00
47670;BME280;33408;52.062;11.722;2024-02-28T01:11:10;101506.13;;;3.95;100.00
47670;BME280;33408;52.062;11.722;2024-02-28T01:13:36;101502.53;;;3.87;100.00
47670;BME280;33408;52.062;11.722;2024-02-28T01:16:04;101503.16;;;3.75;100.00
47670;BME280;33408;52.062;11.722;2024-02-28T01:18:30;101508.47;;;3.86;100.00
47670;BME280;33408;52.062;11.722;2024-02-28T01:20:57;101502.28;;;3.76;100.00
47670;BME280;33408;52.062;11.722;2024-02-28T01:23:24;101510.00;;;3.78;100.00
47670;BME280;33408;52.062;11.722;2024-02-28T01:25:52;101511.50;;;3.68;100.00
47670;BME280;33408;52.062;11.722;2024-02-28T01:28:18;101513.41;;;3.75;100.00
47670;BME280;33408;52.062;11.722;2024-02-28T01:30:45;101513.50;;;3.81;100.00
47670;BME280;33408;52.062;11.722;2024-02-28T01:33:12;101513.44;;;3.77;100.00
47670;BME280;33408;52.062;11.722;2024-02-28T01:35:39;101514.34;;;3.80;100.00
47670;BME280;33408;52.062;11.722;2024-02-28T01:38:05;101520.03;;;3.65;100.00
47670;BME280;33408;52.062;11.722;2024-02-28T01:40:32;101519.53;;;3.82;100.00
47670;BME280;33408;52.062;11.722;2024-02-28T01:43:04;101522.16;;;3.85;100.00
47670;BME280;33408;52.062;11.722;2024-02-28T01:45:30;101524.66;;;3.82;100.00
47670;BME280;33408;52.062;11.722;2024-02-28T01:47:57;101515.00;;;3.72;100.00
47670;BME280;33408;52.062;11.722;2024-02-28T01:50:23;101518.59;;;3.80;100.00
47670;BME280;33408;52.062;11.722;2024-02-28T01:52:50;101512.53;;;3.76;100.00
47670;BME280;33408;52.062;11.722;2024-02-28T01:55:17;101518.13;;;3.58;100.00
47670;BME280;33408;52.062;11.722;2024-02-28T01:57:44;101512.84;;;3.52;100.00
47670;BME280;33408;52.062;11.722;2024-02-28T02:00:13;101523.97;;;3.51;100.00
47670;BME280;33408;52.062;11.722;2024-02-28T02:02:42;101523.88;;;3.48;100.00
47670;BME280;33408;52.062;11.722;2024-02-28T02:05:09;101518.81;;;3.50;100.00
47670;BME280;33408;52.062;11.722;2024-02-28T02:07:36;101518.06;;;3.55;100.00
47670;BME280;33408;52.062;11.722;2024-02-28T02:10:04;101517.38;;;3.62;100.00
47670;BME280;33408;52.062;11.722;2024-02-28T02:12:33;101523.47;;;3.68;100.00
47670;BME280;33408;52.062;11.722;2024-02-28T02:15:00;101523.47;;;3.68;100.00
47670;BME280;33408;52.062;11.722;2024-02-28T02:17:28;101531.84;;;3.60;100.00
47670;BME280;33408;52.062;11.722;2024-02-28T02:19:54;101534.09;;;3.84;100.00
47670;BME280;33408;52.062;11.722;2024-02-28T02:22:21;101521.59;;;3.60;100.00
47670;BME280;33408;52.062;11.722;2024-02-28T02:24:50;101525.28;;;3.73;100.00
47670;BME280;33408;52.062;11.722;2024-02-28T02:27:17;101535.34;;;3.62;100.00
47670;BME280;33408;52.062;11.722;2024-02-28T02:29:44;101532.03;;;3.68;100.00
47670;BME280;33408;52.062;11.722;2024-02-28T02:32:10;101527.41;;;3.53;100.00
47670;BME280;33408;52.062;11.722;2024-02-28T02:34:37;101530.03;;;3.55;100.00
47670;BME280;33408;52.062;11.722;2024-02-28T02:37:03;101525.81;;;3.58;100.00
47670;BME280;33408;52.062;11.722;2024-02-28T02:39:34;101525.91;;;3.61;100.00
47670;BME280;33408;52.062;11.722;2024-02-28T02:42:02;101527.28;;;3.47;100.00
47670;BME280;33408;52.062;11.722;2024-02-28T02:44:28;101518.06;;;3.55;100.00
47670;BME280;33408;52.062;11.722;2024-02-28T02:46:55;101515.75;;;3.66;100.00
47670;BME280;33408;52.062;11.722;2024-02-28T02:49:21;101515.72;;;3.64;100.00
47670;BME280;33408;52.062;11.722;2024-02-28T02:51:48;101512.41;;;3.70;100.00
47670;BME280;33408;52.062;11.722;2024-02-28T02:54:15;101506.06;;;3.92;100.00
47670;BME280;33408;52.062;11.722;2024-02-28T02:56:41;101512.59;;;3.78;100.00
47670;BME280;33408;52.062;11.722;2024-02-28T02:59:10;101519.53;;;3.82;100.00
47670;BME280;33408;52.062;11.722;2024-02-28T03:01:37;101515.16;;;3.78;100.00
47670;BME280;33408;52.062;11.722;2024-02-28T03:04:04;101518.25;;;3.63;100.00
47670;BME280;33408;52.062;11.722;2024-02-28T03:06:30;101519.94;;;3.62;100.00
47670;BME280;33408;52.062;11.722;2024-02-28T03:08:57;101521.59;;;3.60;100.00
47670;BME280;33408;52.062;11.722;2024-02-28T03:11:24;101517.31;;;3.59;100.00
47670;BME280;33408;52.062;11.722;2024-02-28T03:13:51;101518.56;;;3.40;100.00
47670;BME280;33408;52.062;11.722;2024-02-28T03:16:18;101522.84;;;3.40;100.00
47670;BME280;33408;52.062;11.722;2024-02-28T03:18:45;101533.13;;;3.43;100.00
47670;BME280;33408;52.062;11.722;2024-02-28T03:21:12;101543.44;;;3.44;100.00
47670;BME280;33408;52.062;11.722;2024-02-28T03:23:38;101540.09;;;3.47;100.00
47670;BME280;33408;52.062;11.722;2024-02-28T03:26:05;101532.88;;;3.31;100.00
47670;BME280;33408;52.062;11.722;2024-02-28T03:28:31;101525.38;;;3.38;100.00
47670;BME280;33408;52.062;11.722;2024-02-28T03:30:58;101532.47;;;3.50;100.00
47670;BME280;33408;52.062;11.722;2024-02-28T03:33:26;101534.97;;;3.47;100.00
47670;BME280;33408;52.062;11.722;2024-02-28T03:35:53;101526.81;;;3.27;100.00
47670;BME280;33408;52.062;11.722;2024-02-28T03:38:19;101524.38;;;3.33;100.00
47670;BME280;33408;52.062;11.722;2024-02-28T03:40:46;101518.34;;;3.31;100.00
47670;BME280;33408;52.062;11.722;2024-02-28T03:43:12;101526.88;;;3.30;100.00
47670;BME280;33408;52.062;11.722;2024-02-28T03:45:39;101528.19;;;3.51;100.00
47670;BME280;33408;52.062;11.722;2024-02-28T03:48:06;101531.72;;;3.54;100.00
47670;BME280;33408;52.062;11.722;2024-02-28T03:50:34;101535.72;;;3.43;100.00
47670;BME280;33408;52.062;11.722;2024-02-28T03:53:01;101542.50;;;3.41;100.00
47670;BME280;33408;52.062;11.722;2024-02-28T03:55:27;101545.41;;;3.20;100.00
47670;BME280;33408;52.062;11.722;2024-02-28T03:57:54;101548.81;;;3.20;100.00
47670;BME280;33408;52.062;11.722;2024-02-28T04:00:20;101546.50;;;3.29;100.00
47670;BME280;33408;52.062;11.722;2024-02-28T04:02:47;101549.09;;;3.31;100.00
47670;BME280;33408;52.062;11.722;2024-02-28T04:05:14;101546.34;;;3.23;100.00
47670;BME280;33408;52.062;11.722;2024-02-28T04:07:43;101541.22;;;3.23;100.00
47670;BME280;33408;52.062;11.722;2024-02-28T04:10:10;101540.38;;;3.23;100.00
47670;BME280;33408;52.062;11.722;2024-02-28T04:12:36;101543.13;;;3.31;100.00
47670;BME280;33408;52.062;11.722;2024-02-28T04:15:03;101546.22;;;3.54;100.00
47670;BME280;33408;52.062;11.722;2024-02-28T04:17:30;101539.38;;;3.53;100.00
47670;BME280;33408;52.062;11.722;2024-02-28T04:19:57;101540.19;;;3.52;100.00
47670;BME280;33408;52.062;11.722;2024-02-28T04:22:24;101539.41;;;3.56;100.00
47670;BME280;33408;52.062;11.722;2024-02-28T04:24:52;101537.34;;;3.39;100.00
47670;BME280;33408;52.062;11.722;2024-02-28T04:27:18;101531.13;;;3.66;100.00
47670;BME280;33408;52.062;11.722;2024-02-28T04:29:45;101537.19;;;3.70;100.00
47670;BME280;33408;52.062;11.722;2024-02-28T04:32:11;101543.28;;;3.75;100.00
47670;BME280;33408;52.062;11.722;2024-02-28T04:34:38;101537.81;;;3.59;100.00
47670;BME280;33408;52.062;11.722;2024-02-28T04:37:04;101546.19;;;3.52;100.00
47670;BME280;33408;52.062;11.722;2024-02-28T04:39:31;101555.38;;;3.44;100.00
47670;BME280;33408;52.062;11.722;2024-02-28T04:41:59;101551.03;;;3.40;100.00
47670;BME280;33408;52.062;11.722;2024-02-28T04:44:26;101566.69;;;3.52;100.00
47670;BME280;33408;52.062;11.722;2024-02-28T04:46:52;101580.22;;;3.45;100.00
47670;BME280;33408;52.062;11.722;2024-02-28T04:49:19;101580.94;;;3.41;100.00
47670;BME280;33408;52.062;11.722;2024-02-28T04:51:45;101590.41;;;3.43;100.00
47670;BME280;33408;52.062;11.722;2024-02-28T04:54:12;101588.97;;;3.55;100.00
47670;BME280;33408;52.062;11.722;2024-02-28T04:56:39;101583.53;;;3.42;100.00
47670;BME280;33408;52.062;11.722;2024-02-28T04:59:07;101591.47;;;3.52;100.00
47670;BME280;33408;52.062;11.722;2024-02-28T05:01:34;101597.72;;;3.63;100.00
47670;BME280;33408;52.062;11.722;2024-02-28T05:04:04;101604.09;;;3.44;100.00
47670;BME280;33408;52.062;11.722;2024-02-28T05:06:31;101606.38;;;3.33;100.00
47670;BME280;33408;52.062;11.722;2024-02-28T05:08:58;101606.63;;;3.42;100.00
47670;BME280;33408;52.062;11.722;2024-02-28T05:11:25;101615.69;;;3.29;100.00
47670;BME280;33408;52.062;11.722;2024-02-28T05:13:52;101619.16;;;3.32;100.00
47670;BME280;33408;52.062;11.722;2024-02-28T05:16:20;101609.66;;;3.27;100.00
47670;BME280;33408;52.062;11.722;2024-02-28T05:18:46;101611.53;;;3.35;100.00
47670;BME280;33408;52.062;11.722;2024-02-28T05:21:15;101605.16;;;3.52;100.00
47670;BME280;33408;52.062;11.722;2024-02-28T05:23:42;101607.03;;;3.59;100.00
47670;BME280;33408;52.062;11.722;2024-02-28T05:26:09;101607.19;;;3.65;100.00
47670;BME280;33408;52.062;11.722;2024-02-28T05:28:35;101615.19;;;3.79;100.00
47670;BME280;33408;52.062;11.722;2024-02-28T05:31:21;101602.31;;;3.76;100.00
47670;BME280;33408;52.062;11.722;2024-02-28T05:33:48;101602.94;;;3.66;100.00
47670;BME280;33408;52.062;11.722;2024-02-28T05:36:16;101609.03;;;3.71;100.00
47670;BME280;33408;52.062;11.722;2024-02-28T05:38:42;101609.66;;;3.61;100.00
47670;BME280;33408;52.062;11.722;2024-02-28T05:41:09;101614.13;;;3.70;100.00
47670;BME280;33408;52.062;11.722;2024-02-28T05:43:36;101618.28;;;3.64;100.00
47670;BME280;33408;52.062;11.722;2024-02-28T05:46:03;101626.91;;;3.68;100.00
47670;BME280;33408;52.062;11.722;2024-02-28T05:48:32;101624.59;;;3.79;100.00
47670;BME280;33408;52.062;11.722;2024-02-28T05:51:00;101640.94;;;3.49;100.00
47670;BME280;33408;52.062;11.722;2024-02-28T05:53:28;101648.97;;;3.61;100.00
47670;BME280;33408;52.062;11.722;2024-02-28T05:55:57;101647.19;;;3.59;100.00
47670;BME280;33408;52.062;11.722;2024-02-28T05:58:24;101647.22;;;3.60;100.00
47670;BME280;33408;52.062;11.722;2024-02-28T06:00:51;101647.06;;;3.53;100.00
47670;BME280;33408;52.062;11.722;2024-02-28T06:03:18;101648.16;;;3.62;100.00
47670;BME280;33408;52.062;11.722;2024-02-28T06:05:46;101648.88;;;3.58;100.00
47670;BME280;33408;52.062;11.722;2024-02-28T06:08:14;101651.97;;;3.45;100.00
47670;BME280;33408;52.062;11.722;2024-02-28T06:10:40;101652.13;;;3.51;100.00
47670;BME280;33408;52.062;11.722;2024-02-28T06:13:08;101655.69;;;3.56;100.00
47670;BME280;33408;52.062;11.722;2024-02-28T06:15:35;101656.16;;;3.41;100.00
47670;BME280;33408;52.062;11.722;2024-02-28T06:18:02;101659.19;;;3.60;100.00
47670;BME280;33408;52.062;11.722;2024-02-28T06:20:28;101663.28;;;3.53;100.00
47670;BME280;33408;52.062;11.722;2024-02-28T06:22:56;101671.72;;;3.49;100.00
47670;BME280;33408;52.062;11.722;2024-02-28T06:25:23;101664.22;;;3.57;100.00
47670;BME280;33408;52.062;11.722;2024-02-28T06:27:50;101665.16;;;3.60;100.00
47670;BME280;33408;52.062;11.722;2024-02-28T06:30:17;101671.91;;;3.57;100.00
47670;BME280;33408;52.062;11.722;2024-02-28T06:32:43;101668.56;;;3.59;100.00
47670;BME280;33408;52.062;11.722;2024-02-28T06:35:10;101663.38;;;3.56;100.00
47670;BME280;33408;52.062;11.722;2024-02-28T06:37:37;101658.13;;;3.52;100.00
47670;BME280;33408;52.062;11.722;2024-02-28T06:40:06;101660.88;;;3.59;100.00
47670;BME280;33408;52.062;11.722;2024-02-28T06:42:34;101665.41;;;3.70;100.00
47670;BME280;33408;52.062;11.722;2024-02-28T06:45:01;101675.56;;;3.67;100.00
47670;BME280;33408;52.062;11.722;2024-02-28T06:54:12;101676.44;;;3.65;100.00
47670;BME280;33408;52.062;11.722;2024-02-28T06:56:40;101685.72;;;3.62;100.00
47670;BME280;33408;52.062;11.722;2024-02-28T06:59:07;101684.56;;;3.84;100.00
47670;BME280;33408;52.062;11.722;2024-02-28T07:01:33;101675.50;;;3.63;100.00
47670;BME280;33408;52.062;11.722;2024-02-28T07:04:00;101680.16;;;3.78;100.00
47670;BME280;33408;52.062;11.722;2024-02-28T07:06:26;101689.34;;;3.70;100.00
47670;BME280;33408;52.062;11.722;2024-02-28T07:08:53;101694.00;;;3.52;100.00
47670;BME280;33408;52.062;11.722;2024-02-28T07:11:19;101692.06;;;3.43;100.00
47670;BME280;33408;52.062;11.722;2024-02-28T07:13:48;101701.63;;;3.49;100.00
47670;BME280;33408;52.062;11.722;2024-02-28T07:16:17;101696.69;;;3.24;100.00
47670;BME280;33408;52.062;11.722;2024-02-28T07:18:43;101706.09;;;3.57;100.00
47670;BME280;33408;52.062;11.722;2024-02-28T07:21:10;101719.31;;;3.39;100.00
47670;BME280;33408;52.062;11.722;2024-02-28T07:23:39;101717.28;;;3.59;100.00
47670;BME280;33408;52.062;11.722;2024-02-28T07:26:06;101716.88;;;3.77;100.00
47670;BME280;33408;52.062;11.722;2024-02-28T07:28:35;101723.97;;;3.53;100.00
47670;BME280;33408;52.062;11.722;2024-02-28T07:31:03;101733.47;;;3.26;100.00
47670;BME280;33408;52.062;11.722;2024-02-28T07:33:30;101728.03;;;3.46;100.00
47670;BME280;33408;52.062;11.722;2024-02-28T07:35:56;101732.47;;;3.52;100.00
47670;BME280;33408;52.062;11.722;2024-02-28T07:38:26;101735.81;;;3.49;100.00
47670;BME280;33408;52.062;11.722;2024-02-28T07:40:53;101725.25;;;3.37;100.00
47670;BME280;33408;52.062;11.722;2024-02-28T07:43:19;101732.34;;;3.47;100.00
47670;BME280;33408;52.062;11.722;2024-02-28T07:45:46;101721.91;;;3.41;100.00
47670;BME280;33408;52.062;11.722;2024-02-28T07:48:14;101728.91;;;3.46;100.00
47670;BME280;33408;52.062;11.722;2024-02-28T07:50:43;101727.13;;;3.44;100.00
47670;BME280;33408;52.062;11.722;2024-02-28T07:53:09;101731.06;;;3.63;100.00
47670;BME280;33408;52.062;11.722;2024-02-28T07:55:36;101721.81;;;3.70;100.00
47670;BME280;33408;52.062;11.722;2024-02-28T07:58:04;101721.56;;;3.60;100.00
47670;BME280;33408;52.062;11.722;2024-02-28T08:00:31;101718.81;;;3.86;100.00
47670;BME280;33408;52.062;11.722;2024-02-28T08:02:58;101724.69;;;3.82;100.00
47670;BME280;33408;52.062;11.722;2024-02-28T08:05:26;101736.19;;;3.96;100.00
47670;BME280;33408;52.062;11.722;2024-02-28T08:07:53;101740.25;;;3.88;100.00
47670;BME280;33408;52.062;11.722;2024-02-28T08:10:19;101734.91;;;3.80;100.00
47670;BME280;33408;52.062;11.722;2024-02-28T08:12:46;101730.28;;;4.00;100.00
47670;BME280;33408;52.062;11.722;2024-02-28T08:15:13;101728.66;;;4.04;100.00
47670;BME280;33408;52.062;11.722;2024-02-28T08:17:41;101720.72;;;3.93;100.00
47670;BME280;33408;52.062;11.722;2024-02-28T08:20:08;101727.78;;;4.04;100.00
47670;BME280;33408;52.062;11.722;2024-02-28T08:22:36;101739.97;;;4.11;100.00
47670;BME280;33408;52.062;11.722;2024-02-28T08:25:03;101731.72;;;4.24;100.00
47670;BME280;33408;52.062;11.722;2024-02-28T08:27:30;101742.47;;;4.09;100.00
47670;BME280;33408;52.062;11.722;2024-02-28T08:29:58;101736.50;;;4.10;100.00
47670;BME280;33408;52.062;11.722;2024-02-28T08:32:25;101734.34;;;4.27;100.00
47670;BME280;33408;52.062;11.722;2024-02-28T08:34:51;101740.94;;;4.54;100.00
47670;BME280;33408;52.062;11.722;2024-02-28T08:37:19;101735.75;;;4.51;100.00
47670;BME280;33408;52.062;11.722;2024-02-28T08:39:47;101732.69;;;4.67;100.00
47670;BME280;33408;52.062;11.722;2024-02-28T08:42:14;101728.28;;;4.62;100.00
47670;BME280;33408;52.062;11.722;2024-02-28T08:44:40;101732.56;;;4.61;100.00
47670;BME280;33408;52.062;11.722;2024-02-28T08:47:07;101734.88;;;4.50;100.00
47670;BME280;33408;52.062;11.722;2024-02-28T08:49:36;101734.00;;;4.50;100.00
47670;BME280;33408;52.062;11.722;2024-02-28T08:52:04;101738.06;;;4.40;100.00
47670;BME280;33408;52.062;11.722;2024-02-28T08:54:31;101742.09;;;4.29;100.00
47670;BME280;33408;52.062;11.722;2024-02-28T08:57:01;101737.06;;;4.33;100.00
47670;BME280;33408;52.062;11.722;2024-02-28T08:59:28;101737.28;;;4.44;100.00
47670;BME280;33408;52.062;11.722;2024-02-28T09:01:55;101735.84;;;4.55;100.00
47670;BME280;33408;52.062;11.722;2024-02-28T09:04:22;101736.53;;;4.48;100.00
47670;BME280;33408;52.062;11.722;2024-02-28T09:06:48;101745.44;;;4.26;100.00
47670;BME280;33408;52.062;11.722;2024-02-28T09:09:15;101746.97;;;4.18;100.00
47670;BME280;33408;52.062;11.722;2024-02-28T09:11:42;101744.13;;;4.44;100.00
47670;BME280;33408;52.062;11.722;2024-02-28T09:14:10;101744.22;;;4.47;100.00
47670;BME280;33408;52.062;11.722;2024-02-28T09:16:36;101755.22;;;4.43;100.00
47670;BME280;33408;52.062;11.722;2024-02-28T09:19:04;101751.16;;;4.51;100.00
47670;BME280;33408;52.062;11.722;2024-02-28T09:21:31;101748.78;;;4.60;100.00
47670;BME280;33408;52.062;11.722;2024-02-28T09:23:57;101748.59;;;4.51;100.00
47670;BME280;33408;52.062;11.722;2024-02-28T09:26:24;101757.72;;;4.78;100.00
47670;BME280;33408;52.062;11.722;2024-02-28T09:28:50;101755.25;;;4.81;100.00
47670;BME280;33408;52.062;11.722;2024-02-28T09:31:19;101752.16;;;4.57;100.00
47670;BME280;33408;52.062;11.722;2024-02-28T09:33:46;101754.41;;;4.44;100.00
47670;BME280;33408;52.062;11.722;2024-02-28T09:36:14;101750.88;;;4.38;100.00
47670;BME280;33408;52.062;11.722;2024-02-28T09:38:40;101759.69;;;4.50;100.00
47670;BME280;33408;52.062;11.722;2024-02-28T09:41:06;101761.47;;;4.54;100.00
47670;BME280;33408;52.062;11.722;2024-02-28T09:43:40;101763.03;;;4.47;100.00
47670;BME280;33408;52.062;11.722;2024-02-28T09:46:07;101766.00;;;4.64;100.00
47670;BME280;33408;52.062;11.722;2024-02-28T09:48:38;101763.63;;;4.72;100.00
47670;BME280;33408;52.062;11.722;2024-02-28T09:51:06;101753.09;;;4.61;100.00
47670;BME280;33408;52.062;11.722;2024-02-28T09:53:34;101756.19;;;4.86;100.00
47670;BME280;33408;52.062;11.722;2024-02-28T09:56:01;101758.97;;;4.95;100.00
47670;BME280;33408;52.062;11.722;2024-02-28T09:58:30;101761.31;;;4.84;100.00
47670;BME280;33408;52.062;11.722;2024-02-28T10:00:59;101753.41;;;4.75;100.00
47670;BME280;33408;52.062;11.722;2024-02-28T10:03:28;101767.41;;;4.88;100.00
47670;BME280;33408;52.062;11.722;2024-02-28T10:05:58;101768.19;;;4.85;100.00
47670;BME280;33408;52.062;11.722;2024-02-28T10:08:28;101767.38;;;4.86;100.00
47670;BME280;33408;52.062;11.722;2024-02-28T10:10:57;101758.25;;;5.01;100.00
47670;BME280;33408;52.062;11.722;2024-02-28T10:13:23;101756.41;;;4.95;100.00
47670;BME280;33408;52.062;11.722;2024-02-28T10:15:50;101765.47;;;5.19;100.00
47670;BME280;33408;52.062;11.722;2024-02-28T10:18:16;101769.81;;;4.44;100.00
47670;BME280;33408;52.062;11.722;2024-02-28T10:20:43;101769.69;;;4.75;100.00
47670;BME280;33408;52.062;11.722;2024-02-28T10:23:11;101770.78;;;4.87;100.00
47670;BME280;33408;52.062;11.722;2024-02-28T10:25:44;101773.31;;;4.85;100.00
47670;BME280;33408;52.062;11.722;2024-02-28T10:28:11;101778.78;;;4.99;100.00
47670;BME280;33408;52.062;11.722;2024-02-28T10:30:40;101772.81;;;5.02;100.00
47670;BME280;33408;52.062;11.722;2024-02-28T10:33:10;101777.41;;;5.17;100.00
47670;BME280;33408;52.062;11.722;2024-02-28T10:35:37;101777.53;;;5.23;100.00
47670;BME280;33408;52.062;11.722;2024-02-28T10:38:04;101776.47;;;5.13;100.00
47670;BME280;33408;52.062;11.722;2024-02-28T10:40:32;101776.63;;;5.21;100.00
47670;BME280;33408;52.062;11.722;2024-02-28T10:42:59;101785.41;;;5.30;100.00
47670;BME280;33408;52.062;11.722;2024-02-28T10:45:29;101781.97;;;5.30;100.00
47670;BME280;33408;52.062;11.722;2024-02-28T10:47:57;101777.00;;;5.38;100.00
47670;BME280;33408;52.062;11.722;2024-02-28T10:50:24;101781.06;;;5.26;100.00
47670;BME280;33408;52.062;11.722;2024-02-28T10:52:52;101787.06;;;5.27;100.00
47670;BME280;33408;52.062;11.722;2024-02-28T10:55:21;101788.19;;;5.41;100.00
47670;BME280;33408;52.062;11.722;2024-02-28T10:57:57;101790.88;;;5.46;100.00
47670;BME280;33408;52.062;11.722;2024-02-28T11:00:24;101792.50;;;5.44;100.00
47670;BME280;33408;52.062;11.722;2024-02-28T11:02:51;101786.31;;;5.34;100.00
47670;BME280;33408;52.062;11.722;2024-02-28T11:05:18;101786.50;;;5.43;100.00
47670;BME280;33408;52.062;11.722;2024-02-28T11:07:44;101783.00;;;5.38;100.00
47670;BME280;33408;52.062;11.722;2024-02-28T11:10:12;101791.47;;;5.34;100.00
47670;BME280;33408;52.062;11.722;2024-02-28T11:12:39;101788.97;;;5.37;100.00
47670;BME280;33408;52.062;11.722;2024-02-28T11:15:16;101782.63;;;5.21;100.00
47670;BME280;33408;52.062;11.722;2024-02-28T11:17:45;101790.66;;;5.37;100.00
47670;BME280;33408;52.062;11.722;2024-02-28T11:20:13;101793.91;;;5.28;100.00
47670;BME280;33408;52.062;11.722;2024-02-28T11:22:40;101791.53;;;5.37;100.00
47670;BME280;33408;52.062;11.722;2024-02-28T11:25:07;101793.72;;;5.17;100.00
47670;BME280;33408;52.062;11.722;2024-02-28T11:27:45;101793.97;;;5.31;100.00
47670;BME280;33408;52.062;11.722;2024-02-28T11:30:14;101784.75;;;5.42;100.00
47670;BME280;33408;52.062;11.722;2024-02-28T11:32:41;101795.00;;;5.83;100.00
47670;BME280;33408;52.062;11.722;2024-02-28T11:35:07;101791.03;;;5.57;100.00
47670;BME280;33408;52.062;11.722;2024-02-28T11:37:34;101789.19;;;5.48;100.00
47670;BME280;33408;52.062;11.722;2024-02-28T11:40:01;101784.41;;;5.68;100.00
47670;BME280;33408;52.062;11.722;2024-02-28T11:42:29;101783.19;;;5.95;100.00
47670;BME280;33408;52.062;11.722;2024-02-28T11:44:55;101780.34;;;5.81;100.00
47670;BME280;33408;52.062;11.722;2024-02-28T11:47:24;101788.72;;;5.69;100.00
47670;BME280;33408;52.062;11.722;2024-02-28T11:49:51;101777.91;;;5.41;100.00
47670;BME280;33408;52.062;11.722;2024-02-28T11:52:17;101783.69;;;5.75;100.00
47670;BME280;33408;52.062;11.722;2024-02-28T11:54:44;101789.50;;;5.65;100.00
47670;BME280;33408;52.062;11.722;2024-02-28T11:57:12;101785.94;;;5.58;100.00
47670;BME280;33408;52.062;11.722;2024-02-28T11:59:43;101779.44;;;5.77;100.00
47670;BME280;33408;52.062;11.722;2024-02-28T12:02:13;101784.78;;;5.88;100.00
47670;BME280;33408;52.062;11.722;2024-02-28T12:04:41;101783.94;;;5.89;100.00
47670;BME280;33408;52.062;11.722;2024-02-28T12:07:08;101775.44;;;5.93;100.00
47670;BME280;33408;52.062;11.722;2024-02-28T12:09:35;101783.16;;;5.93;100.00
47670;BME280;33408;52.062;11.722;2024-02-28T12:12:06;101776.47;;;6.01;100.00
47670;BME280;33408;52.062;11.722;2024-02-28T12:14:36;101782.34;;;5.96;100.00
47670;BME280;33408;52.062;11.722;2024-02-28T12:17:04;101772.06;;;5.96;100.00
47670;BME280;33408;52.062;11.722;2024-02-28T12:19:31;101771.34;;;6.03;100.00
47670;BME280;33408;52.062;11.722;2024-02-28T12:21:59;101774.25;;;6.22;100.00
47670;BME280;33408;52.062;11.722;2024-02-28T12:24:26;101775.47;;;5.95;100.00
47670;BME280;33408;52.062;11.722;2024-02-28T12:26:53;101762.72;;;6.01;100.00
47670;BME280;33408;52.062;11.722;2024-02-28T12:29:20;101766.38;;;6.14;100.00
47670;BME280;33408;52.062;11.722;2024-02-28T12:31:46;101758.75;;;6.20;100.00
47670;BME280;33408;52.062;11.722;2024-02-28T12:34:13;101757.09;;;6.24;100.00
47670;BME280;33408;52.062;11.722;2024-02-28T12:36:40;101750.19;;;6.23;100.00
47670;BME280;33408;52.062;11.722;2024-02-28T12:39:08;101756.16;;;6.18;100.00
47670;BME280;33408;52.062;11.722;2024-02-28T12:41:36;101755.41;;;6.26;100.00
47670;BME280;33408;52.062;11.722;2024-02-28T12:44:03;101751.41;;;6.45;100.00
47670;BME280;33408;52.062;11.722;2024-02-28T12:46:30;101746.22;;;6.43;100.00